Terminal Aerodrome Forecast
Issued by NWS

Home | Current Version | Previous Version | Text Only | Print | Product List | Glossary On
Versions: 1 2 3 4 5 6 7 8 9 10 11 12 13 14 15 16 17 18 19 20 21 22
000
FTUS46 KEKA 261722
TAFCEC
TAF
KCEC 261722Z 2618/2718 VRB06KT P6SM OVC060
     FM270000 32005KT P6SM BKN050
     FM270500 VRB02KT P6SM SKC
     FM271600 28006KT P6SM OVC050=

USA.gov is the U.S. government's official web portal to all federal, state and local government web resources and services.